sensor_id;sensor_type;location;lat;lon;timestamp;temperature;humidity
18906;DHT22;9585;51.018;4.282;2024-01-30T00:01:34;10.00;99.90
18906;DHT22;9585;51.018;4.282;2024-01-30T00:04:03;10.00;99.90
18906;DHT22;9585;51.018;4.282;2024-01-30T00:06:31;10.00;99.90
18906;DHT22;9585;51.018;4.282;2024-01-30T00:08:59;10.10;99.90
18906;DHT22;9585;51.018;4.282;2024-01-30T00:11:31;10.10;99.90
18906;DHT22;9585;51.018;4.282;2024-01-30T00:13:59;10.10;99.90
18906;DHT22;9585;51.018;4.282;2024-01-30T00:16:30;10.20;99.90
18906;DHT22;9585;51.018;4.282;2024-01-30T00:19:03;10.20;99.90
18906;DHT22;9585;51.018;4.282;2024-01-30T00:21:30;10.20;99.90
18906;DHT22;9585;51.018;4.282;2024-01-30T00:23:58;10.30;99.90
18906;DHT22;9585;51.018;4.282;2024-01-30T00:26:26;10.30;99.90
18906;DHT22;9585;51.018;4.282;2024-01-30T00:28:54;10.30;99.90
18906;DHT22;9585;51.018;4.282;2024-01-30T00:31:22;10.30;99.90
18906;DHT22;9585;51.018;4.282;2024-01-30T00:33:50;10.20;99.90
18906;DHT22;9585;51.018;4.282;2024-01-30T00:36:22;10.20;99.90
18906;DHT22;9585;51.018;4.282;2024-01-30T00:38:50;10.20;99.90
18906;DHT22;9585;51.018;4.282;2024-01-30T00:41:18;10.20;99.90
18906;DHT22;9585;51.018;4.282;2024-01-30T00:43:46;10.20;99.90
18906;DHT22;9585;51.018;4.282;2024-01-30T00:46:14;10.20;99.90
18906;DHT22;9585;51.018;4.282;2024-01-30T00:48:42;10.20;99.90
18906;DHT22;9585;51.018;4.282;2024-01-30T00:51:09;10.10;99.90
18906;DHT22;9585;51.018;4.282;2024-01-30T00:53:39;10.20;99.90
18906;DHT22;9585;51.018;4.282;2024-01-30T00:56:08;10.10;99.90
18906;DHT22;9585;51.018;4.282;2024-01-30T00:58:35;10.10;99.90
18906;DHT22;9585;51.018;4.282;2024-01-30T01:01:03;10.00;99.90
18906;DHT22;9585;51.018;4.282;2024-01-30T01:03:33;10.00;99.90
18906;DHT22;9585;51.018;4.282;2024-01-30T01:06:01;10.00;99.90
18906;DHT22;9585;51.018;4.282;2024-01-30T01:08:29;10.00;99.90
18906;DHT22;9585;51.018;4.282;2024-01-30T01:11:07;10.00;99.90
18906;DHT22;9585;51.018;4.282;2024-01-30T01:13:35;10.00;99.90
18906;DHT22;9585;51.018;4.282;2024-01-30T01:16:03;10.00;99.90
18906;DHT22;9585;51.018;4.282;2024-01-30T01:18:32;10.00;99.90
18906;DHT22;9585;51.018;4.282;2024-01-30T01:21:00;10.00;99.90
18906;DHT22;9585;51.018;4.282;2024-01-30T01:23:28;10.00;99.90
18906;DHT22;9585;51.018;4.282;2024-01-30T01:25:56;10.00;99.90
18906;DHT22;9585;51.018;4.282;2024-01-30T01:28:27;10.00;99.90
18906;DHT22;9585;51.018;4.282;2024-01-30T01:30:56;10.00;99.90
18906;DHT22;9585;51.018;4.282;2024-01-30T01:33:31;10.00;99.90
18906;DHT22;9585;51.018;4.282;2024-01-30T01:36:00;10.00;99.90
18906;DHT22;9585;51.018;4.282;2024-01-30T01:38:28;10.00;99.90
18906;DHT22;9585;51.018;4.282;2024-01-30T01:41:01;10.00;99.90
18906;DHT22;9585;51.018;4.282;2024-01-30T01:43:31;10.00;99.90
18906;DHT22;9585;51.018;4.282;2024-01-30T01:45:59;10.00;99.90
18906;DHT22;9585;51.018;4.282;2024-01-30T01:48:27;9.90;99.90
18906;DHT22;9585;51.018;4.282;2024-01-30T01:50:55;10.00;99.90
18906;DHT22;9585;51.018;4.282;2024-01-30T01:53:23;9.90;99.90
18906;DHT22;9585;51.018;4.282;2024-01-30T01:55:51;9.90;99.90
18906;DHT22;9585;51.018;4.282;2024-01-30T01:58:20;9.90;99.90
18906;DHT22;9585;51.018;4.282;2024-01-30T02:00:51;9.90;99.90
18906;DHT22;9585;51.018;4.282;2024-01-30T02:03:19;9.90;99.90
18906;DHT22;9585;51.018;4.282;2024-01-30T02:05:48;9.90;99.90
18906;DHT22;9585;51.018;4.282;2024-01-30T02:08:16;9.90;99.90
18906;DHT22;9585;51.018;4.282;2024-01-30T02:10:44;9.90;99.90
18906;DHT22;9585;51.018;4.282;2024-01-30T02:13:12;9.80;99.90
18906;DHT22;9585;51.018;4.282;2024-01-30T02:15:40;9.80;99.90
18906;DHT22;9585;51.018;4.282;2024-01-30T02:18:09;9.80;99.90
18906;DHT22;9585;51.018;4.282;2024-01-30T02:20:38;9.80;99.90
18906;DHT22;9585;51.018;4.282;2024-01-30T02:23:09;9.80;99.90
18906;DHT22;9585;51.018;4.282;2024-01-30T02:25:39;9.80;99.90
18906;DHT22;9585;51.018;4.282;2024-01-30T02:28:10;9.70;99.90
18906;DHT22;9585;51.018;4.282;2024-01-30T02:30:39;9.70;99.90
18906;DHT22;9585;51.018;4.282;2024-01-30T02:33:07;9.70;99.90
18906;DHT22;9585;51.018;4.282;2024-01-30T02:35:34;9.70;99.90
18906;DHT22;9585;51.018;4.282;2024-01-30T02:38:02;9.70;99.90
18906;DHT22;9585;51.018;4.282;2024-01-30T02:40:32;9.70;99.90
18906;DHT22;9585;51.018;4.282;2024-01-30T02:43:01;9.80;99.90
18906;DHT22;9585;51.018;4.282;2024-01-30T02:45:30;9.80;99.90
18906;DHT22;9585;51.018;4.282;2024-01-30T02:47:57;9.90;99.90
18906;DHT22;9585;51.018;4.282;2024-01-30T02:50:25;9.90;99.90
18906;DHT22;9585;51.018;4.282;2024-01-30T02:52:52;9.90;99.90
18906;DHT22;9585;51.018;4.282;2024-01-30T02:55:20;10.00;99.90
18906;DHT22;9585;51.018;4.282;2024-01-30T02:57:49;10.00;99.90
18906;DHT22;9585;51.018;4.282;2024-01-30T03:00:17;10.00;99.90
18906;DHT22;9585;51.018;4.282;2024-01-30T03:02:45;10.10;99.90
18906;DHT22;9585;51.018;4.282;2024-01-30T03:05:13;10.10;99.90
18906;DHT22;9585;51.018;4.282;2024-01-30T03:07:41;10.20;99.90
18906;DHT22;9585;51.018;4.282;2024-01-30T03:10:08;10.20;99.90
18906;DHT22;9585;51.018;4.282;2024-01-30T03:12:36;10.20;99.90
18906;DHT22;9585;51.018;4.282;2024-01-30T03:15:06;10.20;99.90
18906;DHT22;9585;51.018;4.282;2024-01-30T03:17:36;10.20;99.90
18906;DHT22;9585;51.018;4.282;2024-01-30T03:20:05;10.20;99.90
18906;DHT22;9585;51.018;4.282;2024-01-30T03:22:33;10.20;99.90
18906;DHT22;9585;51.018;4.282;2024-01-30T03:25:01;10.20;99.90
18906;DHT22;9585;51.018;4.282;2024-01-30T03:27:28;10.20;99.90
18906;DHT22;9585;51.018;4.282;2024-01-30T03:29:56;10.20;99.90
18906;DHT22;9585;51.018;4.282;2024-01-30T03:32:25;10.20;99.90
18906;DHT22;9585;51.018;4.282;2024-01-30T03:34:54;10.20;99.90
18906;DHT22;9585;51.018;4.282;2024-01-30T03:37:21;10.20;99.90
18906;DHT22;9585;51.018;4.282;2024-01-30T03:39:49;10.20;99.90
18906;DHT22;9585;51.018;4.282;2024-01-30T03:42:17;10.20;99.90
18906;DHT22;9585;51.018;4.282;2024-01-30T03:44:44;10.20;99.90
18906;DHT22;9585;51.018;4.282;2024-01-30T03:47:12;10.30;99.90
18906;DHT22;9585;51.018;4.282;2024-01-30T03:49:41;10.30;99.90
18906;DHT22;9585;51.018;4.282;2024-01-30T03:52:09;10.30;99.90
18906;DHT22;9585;51.018;4.282;2024-01-30T03:54:37;10.30;99.90
18906;DHT22;9585;51.018;4.282;2024-01-30T03:57:04;10.30;99.90
18906;DHT22;9585;51.018;4.282;2024-01-30T03:59:33;10.30;99.90
18906;DHT22;9585;51.018;4.282;2024-01-30T04:02:00;10.30;99.90
18906;DHT22;9585;51.018;4.282;2024-01-30T04:04:28;10.20;99.90
18906;DHT22;9585;51.018;4.282;2024-01-30T04:06:58;10.30;99.90
18906;DHT22;9585;51.018;4.282;2024-01-30T04:09:26;10.30;99.90
18906;DHT22;9585;51.018;4.282;2024-01-30T04:11:54;10.30;99.90
18906;DHT22;9585;51.018;4.282;2024-01-30T04:14:22;10.20;99.90
18906;DHT22;9585;51.018;4.282;2024-01-30T04:16:50;10.20;99.90
18906;DHT22;9585;51.018;4.282;2024-01-30T04:19:18;10.20;99.90
18906;DHT22;9585;51.018;4.282;2024-01-30T04:21:46;10.20;99.90
18906;DHT22;9585;51.018;4.282;2024-01-30T04:24:16;10.20;99.90
18906;DHT22;9585;51.018;4.282;2024-01-30T04:26:44;10.20;99.90
18906;DHT22;9585;51.018;4.282;2024-01-30T04:29:12;10.10;99.90
18906;DHT22;9585;51.018;4.282;2024-01-30T04:31:40;10.10;99.90
18906;DHT22;9585;51.018;4.282;2024-01-30T04:34:07;10.10;99.90
18906;DHT22;9585;51.018;4.282;2024-01-30T04:36:35;10.10;99.90
18906;DHT22;9585;51.018;4.282;2024-01-30T04:39:03;10.10;99.90
18906;DHT22;9585;51.018;4.282;2024-01-30T04:41:32;10.10;99.90
18906;DHT22;9585;51.018;4.282;2024-01-30T04:44:00;10.10;99.90
18906;DHT22;9585;51.018;4.282;2024-01-30T04:46:27;10.10;99.90
18906;DHT22;9585;51.018;4.282;2024-01-30T04:48:55;10.00;99.90
18906;DHT22;9585;51.018;4.282;2024-01-30T04:51:23;10.10;99.90
18906;DHT22;9585;51.018;4.282;2024-01-30T04:53:51;10.10;99.90
18906;DHT22;9585;51.018;4.282;2024-01-30T04:56:19;10.20;99.90
18906;DHT22;9585;51.018;4.282;2024-01-30T04:58:48;10.10;99.90
18906;DHT22;9585;51.018;4.282;2024-01-30T05:01:16;10.10;99.90
18906;DHT22;9585;51.018;4.282;2024-01-30T05:03:44;10.10;99.90
18906;DHT22;9585;51.018;4.282;2024-01-30T05:06:12;10.10;99.90
18906;DHT22;9585;51.018;4.282;2024-01-30T05:08:40;10.10;99.90
18906;DHT22;9585;51.018;4.282;2024-01-30T05:11:08;10.20;99.90
18906;DHT22;9585;51.018;4.282;2024-01-30T05:13:37;10.20;99.90
18906;DHT22;9585;51.018;4.282;2024-01-30T05:16:06;10.30;99.90
18906;DHT22;9585;51.018;4.282;2024-01-30T05:18:34;10.30;99.90
18906;DHT22;9585;51.018;4.282;2024-01-30T05:21:02;10.30;99.90
18906;DHT22;9585;51.018;4.282;2024-01-30T05:23:30;10.20;99.90
18906;DHT22;9585;51.018;4.282;2024-01-30T05:25:58;10.20;99.90
18906;DHT22;9585;51.018;4.282;2024-01-30T05:28:26;10.30;99.90
18906;DHT22;9585;51.018;4.282;2024-01-30T05:30:54;10.30;99.90
18906;DHT22;9585;51.018;4.282;2024-01-30T05:33:24;10.30;99.90
18906;DHT22;9585;51.018;4.282;2024-01-30T05:35:51;10.30;99.90
18906;DHT22;9585;51.018;4.282;2024-01-30T05:38:20;10.30;99.90
18906;DHT22;9585;51.018;4.282;2024-01-30T05:40:47;10.30;99.90
18906;DHT22;9585;51.018;4.282;2024-01-30T05:43:15;10.30;99.90
18906;DHT22;9585;51.018;4.282;2024-01-30T05:45:43;10.30;99.90
18906;DHT22;9585;51.018;4.282;2024-01-30T05:48:11;10.30;99.90
18906;DHT22;9585;51.018;4.282;2024-01-30T05:50:41;10.30;99.90
18906;DHT22;9585;51.018;4.282;2024-01-30T05:53:08;10.30;99.90
18906;DHT22;9585;51.018;4.282;2024-01-30T05:55:36;10.30;99.90
18906;DHT22;9585;51.018;4.282;2024-01-30T05:58:04;10.30;99.90
18906;DHT22;9585;51.018;4.282;2024-01-30T06:00:31;10.30;99.90
18906;DHT22;9585;51.018;4.282;2024-01-30T06:02:59;10.30;99.90
18906;DHT22;9585;51.018;4.282;2024-01-30T06:05:27;10.30;99.90
18906;DHT22;9585;51.018;4.282;2024-01-30T06:07:56;10.30;99.90
18906;DHT22;9585;51.018;4.282;2024-01-30T06:10:24;10.20;99.90
18906;DHT22;9585;51.018;4.282;2024-01-30T06:12:52;10.20;99.90
18906;DHT22;9585;51.018;4.282;2024-01-30T06:15:20;10.20;99.90
18906;DHT22;9585;51.018;4.282;2024-01-30T06:17:47;10.20;99.90
18906;DHT22;9585;51.018;4.282;2024-01-30T06:20:16;10.20;99.90
18906;DHT22;9585;51.018;4.282;2024-01-30T06:22:44;10.30;99.90
18906;DHT22;9585;51.018;4.282;2024-01-30T06:25:13;10.30;99.90
18906;DHT22;9585;51.018;4.282;2024-01-30T06:27:42;10.30;99.90
18906;DHT22;9585;51.018;4.282;2024-01-30T06:30:11;10.30;99.90
18906;DHT22;9585;51.018;4.282;2024-01-30T06:32:39;10.30;99.90
18906;DHT22;9585;51.018;4.282;2024-01-30T06:35:07;10.20;99.90
18906;DHT22;9585;51.018;4.282;2024-01-30T06:37:36;10.10;99.90
18906;DHT22;9585;51.018;4.282;2024-01-30T06:40:05;10.10;99.90
18906;DHT22;9585;51.018;4.282;2024-01-30T06:42:34;10.20;99.90
18906;DHT22;9585;51.018;4.282;2024-01-30T06:45:02;10.30;99.90
18906;DHT22;9585;51.018;4.282;2024-01-30T06:47:30;10.30;99.90
18906;DHT22;9585;51.018;4.282;2024-01-30T06:49:58;10.30;99.90
18906;DHT22;9585;51.018;4.282;2024-01-30T06:52:25;10.30;99.90
18906;DHT22;9585;51.018;4.282;2024-01-30T06:54:53;10.40;99.90
18906;DHT22;9585;51.018;4.282;2024-01-30T06:57:20;10.40;99.90
18906;DHT22;9585;51.018;4.282;2024-01-30T06:59:50;10.40;99.90
18906;DHT22;9585;51.018;4.282;2024-01-30T07:02:18;10.40;99.90
18906;DHT22;9585;51.018;4.282;2024-01-30T07:04:46;10.50;99.90
18906;DHT22;9585;51.018;4.282;2024-01-30T07:07:14;10.50;99.90
18906;DHT22;9585;51.018;4.282;2024-01-30T07:09:41;10.60;99.90
18906;DHT22;9585;51.018;4.282;2024-01-30T07:12:13;10.60;99.90
18906;DHT22;9585;51.018;4.282;2024-01-30T07:14:41;10.60;99.90
18906;DHT22;9585;51.018;4.282;2024-01-30T07:17:10;10.60;99.90
18906;DHT22;9585;51.018;4.282;2024-01-30T07:19:38;10.60;99.90
18906;DHT22;9585;51.018;4.282;2024-01-30T07:22:06;10.60;99.90
18906;DHT22;9585;51.018;4.282;2024-01-30T07:24:34;10.60;99.90
18906;DHT22;9585;51.018;4.282;2024-01-30T07:27:02;10.60;99.90
18906;DHT22;9585;51.018;4.282;2024-01-30T07:29:30;10.70;99.90
18906;DHT22;9585;51.018;4.282;2024-01-30T07:31:58;10.60;99.90
18906;DHT22;9585;51.018;4.282;2024-01-30T07:34:27;10.60;99.90
18906;DHT22;9585;51.018;4.282;2024-01-30T07:36:55;10.60;99.90
18906;DHT22;9585;51.018;4.282;2024-01-30T07:39:24;10.60;99.90
18906;DHT22;9585;51.018;4.282;2024-01-30T07:41:52;10.60;99.90
18906;DHT22;9585;51.018;4.282;2024-01-30T07:44:24;10.70;99.90
18906;DHT22;9585;51.018;4.282;2024-01-30T07:46:54;10.70;99.90
18906;DHT22;9585;51.018;4.282;2024-01-30T07:49:23;10.70;99.90
18906;DHT22;9585;51.018;4.282;2024-01-30T07:51:52;10.70;99.90
18906;DHT22;9585;51.018;4.282;2024-01-30T07:54:20;10.70;99.90
18906;DHT22;9585;51.018;4.282;2024-01-30T07:56:49;10.80;99.90
18906;DHT22;9585;51.018;4.282;2024-01-30T07:59:16;10.70;99.90
18906;DHT22;9585;51.018;4.282;2024-01-30T08:01:47;10.70;99.90
18906;DHT22;9585;51.018;4.282;2024-01-30T08:04:15;10.80;99.90
18906;DHT22;9585;51.018;4.282;2024-01-30T08:06:43;10.90;99.90
18906;DHT22;9585;51.018;4.282;2024-01-30T08:09:13;11.00;99.90
18906;DHT22;9585;51.018;4.282;2024-01-30T08:11:41;11.00;99.90
18906;DHT22;9585;51.018;4.282;2024-01-30T08:14:09;11.00;99.90
18906;DHT22;9585;51.018;4.282;2024-01-30T08:16:36;11.00;99.90
18906;DHT22;9585;51.018;4.282;2024-01-30T08:19:04;11.00;99.90
18906;DHT22;9585;51.018;4.282;2024-01-30T08:21:31;11.00;99.90
18906;DHT22;9585;51.018;4.282;2024-01-30T08:24:03;11.00;99.90
18906;DHT22;9585;51.018;4.282;2024-01-30T08:26:33;11.00;99.90
18906;DHT22;9585;51.018;4.282;2024-01-30T08:29:01;11.10;99.90
18906;DHT22;9585;51.018;4.282;2024-01-30T08:31:29;11.10;99.90
18906;DHT22;9585;51.018;4.282;2024-01-30T08:33:56;11.10;99.90
18906;DHT22;9585;51.018;4.282;2024-01-30T08:36:25;11.10;99.90
18906;DHT22;9585;51.018;4.282;2024-01-30T08:38:53;11.20;99.90
18906;DHT22;9585;51.018;4.282;2024-01-30T08:41:21;11.20;99.90
18906;DHT22;9585;51.018;4.282;2024-01-30T08:43:51;11.20;99.90
18906;DHT22;9585;51.018;4.282;2024-01-30T08:46:20;11.20;99.90
18906;DHT22;9585;51.018;4.282;2024-01-30T08:48:48;11.20;99.90
18906;DHT22;9585;51.018;4.282;2024-01-30T08:51:15;11.20;99.90
18906;DHT22;9585;51.018;4.282;2024-01-30T08:53:43;11.30;99.90
18906;DHT22;9585;51.018;4.282;2024-01-30T08:56:10;11.20;99.90
18906;DHT22;9585;51.018;4.282;2024-01-30T08:58:38;11.20;99.90
18906;DHT22;9585;51.018;4.282;2024-01-30T09:01:07;11.20;99.90
18906;DHT22;9585;51.018;4.282;2024-01-30T09:03:35;11.30;99.90
18906;DHT22;9585;51.018;4.282;2024-01-30T09:06:08;11.40;99.90
18906;DHT22;9585;51.018;4.282;2024-01-30T09:08:36;11.30;99.90
18906;DHT22;9585;51.018;4.282;2024-01-30T09:11:08;11.30;99.90
18906;DHT22;9585;51.018;4.282;2024-01-30T09:13:36;11.30;99.90
18906;DHT22;9585;51.018;4.282;2024-01-30T09:16:04;11.30;99.90
18906;DHT22;9585;51.018;4.282;2024-01-30T09:18:34;11.30;99.90
18906;DHT22;9585;51.018;4.282;2024-01-30T09:21:01;11.30;99.90
18906;DHT22;9585;51.018;4.282;2024-01-30T09:23:29;11.30;99.90
18906;DHT22;9585;51.018;4.282;2024-01-30T09:25:57;11.40;99.90
18906;DHT22;9585;51.018;4.282;2024-01-30T09:28:24;11.30;99.90
18906;DHT22;9585;51.018;4.282;2024-01-30T09:30:52;11.40;99.90
18906;DHT22;9585;51.018;4.282;2024-01-30T09:33:20;11.40;99.90
18906;DHT22;9585;51.018;4.282;2024-01-30T09:35:50;11.50;99.90
18906;DHT22;9585;51.018;4.282;2024-01-30T09:38:17;11.50;99.90
18906;DHT22;9585;51.018;4.282;2024-01-30T09:40:49;11.50;99.90
18906;DHT22;9585;51.018;4.282;2024-01-30T09:43:23;11.50;99.90
18906;DHT22;9585;51.018;4.282;2024-01-30T09:45:51;11.60;99.90
18906;DHT22;9585;51.018;4.282;2024-01-30T09:48:20;11.70;99.90
18906;DHT22;9585;51.018;4.282;2024-01-30T09:50:51;11.70;99.90
18906;DHT22;9585;51.018;4.282;2024-01-30T09:53:19;11.90;99.90
18906;DHT22;9585;51.018;4.282;2024-01-30T09:55:47;11.90;99.90
18906;DHT22;9585;51.018;4.282;2024-01-30T09:58:16;12.00;99.90
18906;DHT22;9585;51.018;4.282;2024-01-30T10:00:44;11.90;99.90
18906;DHT22;9585;51.018;4.282;2024-01-30T10:03:11;12.00;99.90
18906;DHT22;9585;51.018;4.282;2024-01-30T10:05:40;12.00;99.90
18906;DHT22;9585;51.018;4.282;2024-01-30T10:08:10;12.10;99.90
18906;DHT22;9585;51.018;4.282;2024-01-30T10:10:37;12.10;99.90
18906;DHT22;9585;51.018;4.282;2024-01-30T10:13:05;12.10;99.90
18906;DHT22;9585;51.018;4.282;2024-01-30T10:15:33;12.10;99.90
18906;DHT22;9585;51.018;4.282;2024-01-30T10:18:01;12.10;99.90
18906;DHT22;9585;51.018;4.282;2024-01-30T10:20:29;12.10;99.90
18906;DHT22;9585;51.018;4.282;2024-01-30T10:22:57;12.20;99.90
18906;DHT22;9585;51.018;4.282;2024-01-30T10:25:27;12.10;99.90
18906;DHT22;9585;51.018;4.282;2024-01-30T10:27:55;12.10;99.90
18906;DHT22;9585;51.018;4.282;2024-01-30T10:30:23;12.20;99.90
18906;DHT22;9585;51.018;4.282;2024-01-30T10:32:51;12.10;99.90
18906;DHT22;9585;51.018;4.282;2024-01-30T10:35:19;12.20;99.90
18906;DHT22;9585;51.018;4.282;2024-01-30T10:37:47;12.20;99.90
18906;DHT22;9585;51.018;4.282;2024-01-30T10:40:16;12.30;99.90
18906;DHT22;9585;51.018;4.282;2024-01-30T10:42:45;12.30;99.90
18906;DHT22;9585;51.018;4.282;2024-01-30T10:45:13;12.20;99.90
18906;DHT22;9585;51.018;4.282;2024-01-30T10:47:47;11.90;99.90
18906;DHT22;9585;51.018;4.282;2024-01-30T10:50:16;11.70;99.90
18906;DHT22;9585;51.018;4.282;2024-01-30T10:52:45;11.60;99.90
18906;DHT22;9585;51.018;4.282;2024-01-30T10:55:13;11.40;99.90
18906;DHT22;9585;51.018;4.282;2024-01-30T10:57:42;11.30;99.90
18906;DHT22;9585;51.018;4.282;2024-01-30T11:00:13;11.30;99.90
18906;DHT22;9585;51.018;4.282;2024-01-30T11:02:43;11.30;99.90
18906;DHT22;9585;51.018;4.282;2024-01-30T11:05:12;11.30;99.90
18906;DHT22;9585;51.018;4.282;2024-01-30T11:07:41;11.20;99.90
18906;DHT22;9585;51.018;4.282;2024-01-30T11:10:09;11.10;99.90
18906;DHT22;9585;51.018;4.282;2024-01-30T11:12:40;11.00;99.90
18906;DHT22;9585;51.018;4.282;2024-01-30T11:15:12;11.10;99.90
18906;DHT22;9585;51.018;4.282;2024-01-30T11:17:48;11.20;99.90
18906;DHT22;9585;51.018;4.282;2024-01-30T11:20:20;11.20;99.90
18906;DHT22;9585;51.018;4.282;2024-01-30T11:22:51;11.20;99.90
18906;DHT22;9585;51.018;4.282;2024-01-30T11:25:20;11.20;99.90
18906;DHT22;9585;51.018;4.282;2024-01-30T11:27:50;11.20;99.90
18906;DHT22;9585;51.018;4.282;2024-01-30T11:30:23;11.10;99.90
18906;DHT22;9585;51.018;4.282;2024-01-30T11:33:01;11.20;99.90
18906;DHT22;9585;51.018;4.282;2024-01-30T11:35:32;11.10;99.90
18906;DHT22;9585;51.018;4.282;2024-01-30T11:38:01;11.00;99.90
18906;DHT22;9585;51.018;4.282;2024-01-30T11:40:29;11.00;99.90
18906;DHT22;9585;51.018;4.282;2024-01-30T11:42:58;11.10;99.90
18906;DHT22;9585;51.018;4.282;2024-01-30T11:45:28;11.20;99.90
18906;DHT22;9585;51.018;4.282;2024-01-30T11:47:56;11.20;99.90
18906;DHT22;9585;51.018;4.282;2024-01-30T11:50:24;11.20;99.90
18906;DHT22;9585;51.018;4.282;2024-01-30T11:52:52;11.30;99.90
18906;DHT22;9585;51.018;4.282;2024-01-30T11:55:23;11.60;99.90
18906;DHT22;9585;51.018;4.282;2024-01-30T11:57:51;11.80;99.90
18906;DHT22;9585;51.018;4.282;2024-01-30T12:00:22;12.00;99.90
18906;DHT22;9585;51.018;4.282;2024-01-30T12:02:53;12.10;99.90
18906;DHT22;9585;51.018;4.282;2024-01-30T12:05:22;12.10;99.90
18906;DHT22;9585;51.018;4.282;2024-01-30T12:07:50;12.00;99.90
18906;DHT22;9585;51.018;4.282;2024-01-30T12:10:18;11.90;99.90
18906;DHT22;9585;51.018;4.282;2024-01-30T12:12:47;12.00;99.90
18906;DHT22;9585;51.018;4.282;2024-01-30T12:15:16;12.20;99.90
18906;DHT22;9585;51.018;4.282;2024-01-30T12:17:44;12.40;99.90
18906;DHT22;9585;51.018;4.282;2024-01-30T12:20:14;12.50;99.90
18906;DHT22;9585;51.018;4.282;2024-01-30T12:22:43;12.60;99.90
18906;DHT22;9585;51.018;4.282;2024-01-30T12:25:13;12.60;99.90
18906;DHT22;9585;51.018;4.282;2024-01-30T12:27:43;12.40;99.90
18906;DHT22;9585;51.018;4.282;2024-01-30T12:30:12;12.10;99.90
18906;DHT22;9585;51.018;4.282;2024-01-30T12:32:42;12.20;99.90
18906;DHT22;9585;51.018;4.282;2024-01-30T12:35:16;12.50;99.90
18906;DHT22;9585;51.018;4.282;2024-01-30T12:37:47;12.60;99.90
18906;DHT22;9585;51.018;4.282;2024-01-30T12:40:15;12.50;99.90
18906;DHT22;9585;51.018;4.282;2024-01-30T12:42:43;12.50;99.90
18906;DHT22;9585;51.018;4.282;2024-01-30T12:45:14;12.30;99.90
18906;DHT22;9585;51.018;4.282;2024-01-30T12:47:46;12.10;99.90
18906;DHT22;9585;51.018;4.282;2024-01-30T12:50:15;11.80;99.90
18906;DHT22;9585;51.018;4.282;2024-01-30T12:52:43;11.70;99.90
18906;DHT22;9585;51.018;4.282;2024-01-30T12:55:14;11.70;99.90
18906;DHT22;9585;51.018;4.282;2024-01-30T12:57:45;11.60;99.90
18906;DHT22;9585;51.018;4.282;2024-01-30T13:00:13;11.40;99.90
18906;DHT22;9585;51.018;4.282;2024-01-30T13:02:42;11.40;99.90
18906;DHT22;9585;51.018;4.282;2024-01-30T13:05:11;11.30;99.90
18906;DHT22;9585;51.018;4.282;2024-01-30T13:07:41;11.30;99.90
18906;DHT22;9585;51.018;4.282;2024-01-30T13:10:09;11.20;99.90
18906;DHT22;9585;51.018;4.282;2024-01-30T13:12:38;11.00;99.90
18906;DHT22;9585;51.018;4.282;2024-01-30T13:15:06;10.90;99.90
18906;DHT22;9585;51.018;4.282;2024-01-30T13:17:34;10.80;99.90
18906;DHT22;9585;51.018;4.282;2024-01-30T13:20:02;10.70;99.90
18906;DHT22;9585;51.018;4.282;2024-01-30T13:22:35;10.60;99.90
18906;DHT22;9585;51.018;4.282;2024-01-30T13:25:06;10.50;99.90
18906;DHT22;9585;51.018;4.282;2024-01-30T13:27:35;10.50;99.90
18906;DHT22;9585;51.018;4.282;2024-01-30T13:30:03;10.50;99.90
18906;DHT22;9585;51.018;4.282;2024-01-30T13:32:31;10.50;99.90
18906;DHT22;9585;51.018;4.282;2024-01-30T13:34:58;10.50;99.90
18906;DHT22;9585;51.018;4.282;2024-01-30T13:37:26;10.40;99.90
18906;DHT22;9585;51.018;4.282;2024-01-30T13:39:54;10.30;99.90
18906;DHT22;9585;51.018;4.282;2024-01-30T13:42:24;10.30;99.90
18906;DHT22;9585;51.018;4.282;2024-01-30T13:44:52;10.20;99.90
18906;DHT22;9585;51.018;4.282;2024-01-30T13:47:22;10.20;99.90
18906;DHT22;9585;51.018;4.282;2024-01-30T13:49:51;10.30;99.90
18906;DHT22;9585;51.018;4.282;2024-01-30T13:52:20;10.30;99.90
18906;DHT22;9585;51.018;4.282;2024-01-30T13:54:48;10.30;99.90
18906;DHT22;9585;51.018;4.282;2024-01-30T13:57:15;10.30;99.90
18906;DHT22;9585;51.018;4.282;2024-01-30T13:59:48;10.30;99.90
18906;DHT22;9585;51.018;4.282;2024-01-30T14:02:17;10.20;99.90
18906;DHT22;9585;51.018;4.282;2024-01-30T14:04:46;10.20;99.90
18906;DHT22;9585;51.018;4.282;2024-01-30T14:07:17;10.20;99.90
18906;DHT22;9585;51.018;4.282;2024-01-30T14:09:45;10.10;99.90
18906;DHT22;9585;51.018;4.282;2024-01-30T14:12:13;10.10;99.90
18906;DHT22;9585;51.018;4.282;2024-01-30T14:14:43;10.10;99.90
18906;DHT22;9585;51.018;4.282;2024-01-30T14:17:13;9.90;99.90
18906;DHT22;9585;51.018;4.282;2024-01-30T14:19:41;9.90;99.90
18906;DHT22;9585;51.018;4.282;2024-01-30T14:22:10;9.80;99.90
18906;DHT22;9585;51.018;4.282;2024-01-30T14:24:38;9.70;99.90
18906;DHT22;9585;51.018;4.282;2024-01-30T14:27:12;9.70;99.90
18906;DHT22;9585;51.018;4.282;2024-01-30T14:29:40;9.80;99.90
18906;DHT22;9585;51.018;4.282;2024-01-30T14:32:09;9.80;99.90
18906;DHT22;9585;51.018;4.282;2024-01-30T14:34:38;9.90;99.90
18906;DHT22;9585;51.018;4.282;2024-01-30T14:37:09;9.90;99.90
18906;DHT22;9585;51.018;4.282;2024-01-30T14:39:37;10.00;99.90
18906;DHT22;9585;51.018;4.282;2024-01-30T14:42:07;10.00;99.90
18906;DHT22;9585;51.018;4.282;2024-01-30T14:44:35;10.00;99.90
18906;DHT22;9585;51.018;4.282;2024-01-30T14:47:15;9.80;99.90
18906;DHT22;9585;51.018;4.282;2024-01-30T14:49:56;9.70;99.90
18906;DHT22;9585;51.018;4.282;2024-01-30T14:53:03;9.70;99.90
18906;DHT22;9585;51.018;4.282;2024-01-30T14:55:31;9.70;99.90
18906;DHT22;9585;51.018;4.282;2024-01-30T14:57:59;9.80;99.90
18906;DHT22;9585;51.018;4.282;2024-01-30T15:00:30;9.80;99.90
18906;DHT22;9585;51.018;4.282;2024-01-30T15:02:57;9.80;99.90
18906;DHT22;9585;51.018;4.282;2024-01-30T15:08:29;9.80;99.90
18906;DHT22;9585;51.018;4.282;2024-01-30T15:10:58;9.70;99.90
18906;DHT22;9585;51.018;4.282;2024-01-30T15:13:32;9.70;99.90
18906;DHT22;9585;51.018;4.282;2024-01-30T15:16:00;9.70;99.90
18906;DHT22;9585;51.018;4.282;2024-01-30T15:18:29;9.70;99.90
18906;DHT22;9585;51.018;4.282;2024-01-30T15:20:56;9.70;99.90
18906;DHT22;9585;51.018;4.282;2024-01-30T15:23:24;9.60;99.90
18906;DHT22;9585;51.018;4.282;2024-01-30T15:25:53;9.60;99.90
18906;DHT22;9585;51.018;4.282;2024-01-30T15:28:33;9.50;99.90
18906;DHT22;9585;51.018;4.282;2024-01-30T15:31:03;9.50;99.90
18906;DHT22;9585;51.018;4.282;2024-01-30T15:33:30;9.50;99.90
18906;DHT22;9585;51.018;4.282;2024-01-30T15:35:58;9.60;99.90
18906;DHT22;9585;51.018;4.282;2024-01-30T15:38:29;9.60;99.90
18906;DHT22;9585;51.018;4.282;2024-01-30T15:40:59;9.60;99.90
18906;DHT22;9585;51.018;4.282;2024-01-30T15:43:27;9.50;99.90
18906;DHT22;9585;51.018;4.282;2024-01-30T15:45:55;9.40;99.90
18906;DHT22;9585;51.018;4.282;2024-01-30T15:48:24;9.30;99.90
18906;DHT22;9585;51.018;4.282;2024-01-30T15:51:01;9.20;99.90
18906;DHT22;9585;51.018;4.282;2024-01-30T15:53:31;8.90;99.90
18906;DHT22;9585;51.018;4.282;2024-01-30T15:56:01;8.80;99.90
18906;DHT22;9585;51.018;4.282;2024-01-30T15:58:29;8.90;99.90
18906;DHT22;9585;51.018;4.282;2024-01-30T16:00:59;8.80;99.90
18906;DHT22;9585;51.018;4.282;2024-01-30T16:03:28;8.70;99.90